createdAt,value
2017-09-15T00:02:05.261Z,1.67
2017-09-15T00:04:33.403Z,2.07
2017-09-15T00:07:01.577Z,2.00
2017-09-15T00:09:29.732Z,4.83
2017-09-15T00:11:58.650Z,1.70
2017-09-15T00:14:26.781Z,2.20
2017-09-15T00:16:55.725Z,1.20
2017-09-15T00:19:23.963Z,4.43
2017-09-15T00:21:52.943Z,3.17
2017-09-15T00:24:21.851Z,5.97
2017-09-15T00:26:50.045Z,4.00
2017-09-15T00:29:18.178Z,1.90
2017-09-15T00:31:47.074Z,2.30
2017-09-15T00:34:16.008Z,1.03
2017-09-15T00:36:44.165Z,1.90
2017-09-15T00:39:12.356Z,1.03
2017-09-15T00:41:40.508Z,2.43
2017-09-15T00:44:08.690Z,2.00
2017-09-15T00:46:37.006Z,4.13
2017-09-15T00:49:05.286Z,3.70
2017-09-15T00:51:34.203Z,4.97
2017-09-15T00:54:02.358Z,1.43
2017-09-15T00:56:31.294Z,1.53
2017-09-15T00:58:59.437Z,2.00
2017-09-15T01:01:27.615Z,4.30
2017-09-15T01:03:55.758Z,2.03
2017-09-15T01:06:24.705Z,13.17
2017-09-15T01:08:52.845Z,3.40
2017-09-15T01:11:20.995Z,4.13
2017-09-15T01:13:49.915Z,4.23
2017-09-15T01:16:18.047Z,8.93
2017-09-15T01:18:47.143Z,5.07
2017-09-15T01:21:16.047Z,6.80
2017-09-15T01:23:44.185Z,5.53
2017-09-15T01:26:12.366Z,3.70
2017-09-15T01:28:40.505Z,1.83
2017-09-15T01:31:08.669Z,2.00
2017-09-15T01:33:36.806Z,2.97
2017-09-15T01:36:04.958Z,4.70
2017-09-15T01:38:33.871Z,2.20
2017-09-15T01:41:02.008Z,4.53
2017-09-15T01:43:31.164Z,7.93
2017-09-15T01:45:59.304Z,2.23
2017-09-15T01:48:27.476Z,2.13
2017-09-15T01:50:55.618Z,7.57
2017-09-15T01:53:23.760Z,7.03
2017-09-15T01:55:51.893Z,4.67
2017-09-15T01:58:20.038Z,8.10
2017-09-15T02:00:48.984Z,2.63
2017-09-15T02:03:17.129Z,3.07
2017-09-15T02:05:45.291Z,4.80
2017-09-15T02:08:14.270Z,3.23
2017-09-15T02:10:43.194Z,5.13
2017-09-15T02:13:12.223Z,2.43
2017-09-15T02:15:41.127Z,1.73
2017-09-15T02:18:09.296Z,1.30
2017-09-15T02:20:37.444Z,2.00
2017-09-15T02:23:05.611Z,1.73
2017-09-15T02:25:33.743Z,3.47
2017-09-15T02:28:02.659Z,3.60
2017-09-15T02:30:30.790Z,10.10
2017-09-15T02:32:58.925Z,2.33
2017-09-15T02:35:27.083Z,2.20
2017-09-15T02:37:55.214Z,4.67
2017-09-15T02:40:23.369Z,1.40
2017-09-15T02:42:51.500Z,1.93
2017-09-15T02:45:19.680Z,5.73
2017-09-15T02:47:47.802Z,3.90
2017-09-15T02:50:16.718Z,1.70
2017-09-15T02:52:44.867Z,2.20
2017-09-15T02:55:13.415Z,2.80
2017-09-15T02:57:41.567Z,5.00
2017-09-15T03:00:09.699Z,2.87
2017-09-15T03:02:37.855Z,4.90
2017-09-15T03:05:06.763Z,4.30
2017-09-15T03:07:34.894Z,1.27
2017-09-15T03:10:03.059Z,3.77
2017-09-15T03:12:31.209Z,6.00
2017-09-15T03:14:59.362Z,5.03
2017-09-15T03:17:27.484Z,4.80
2017-09-15T03:19:56.386Z,1.10
2017-09-15T03:22:25.315Z,1.80
2017-09-15T03:24:53.457Z,3.10
2017-09-15T03:27:22.373Z,5.03
2017-09-15T03:29:50.502Z,4.23
2017-09-15T03:32:19.543Z,6.17
2017-09-15T03:34:47.671Z,2.83
2017-09-15T03:37:16.579Z,4.10
2017-09-15T03:39:44.734Z,5.27
2017-09-15T03:42:13.647Z,4.40
2017-09-15T03:44:42.501Z,3.07
2017-09-15T03:47:11.411Z,2.17
2017-09-15T03:49:39.705Z,2.90
2017-09-15T03:52:07.866Z,2.00
2017-09-15T03:54:36.002Z,3.60
2017-09-15T03:57:04.172Z,1.33
2017-09-15T03:59:32.302Z,5.83
2017-09-15T04:02:00.470Z,4.07
2017-09-15T04:04:28.639Z,3.83
2017-09-15T04:06:56.811Z,3.70
2017-09-15T04:09:24.942Z,7.37
2017-09-15T04:11:53.867Z,1.00
2017-09-15T04:14:22.006Z,4.40
2017-09-15T04:16:51.033Z,2.10
2017-09-15T04:19:19.175Z,1.40
2017-09-15T04:21:48.069Z,2.33
2017-09-15T04:24:16.229Z,1.00
2017-09-15T04:26:45.125Z,3.67
2017-09-15T04:29:14.054Z,2.20
2017-09-15T04:31:42.185Z,2.63
2017-09-15T04:34:11.107Z,2.03
2017-09-15T04:36:39.247Z,1.67
2017-09-15T04:39:09.071Z,4.07
2017-09-15T04:41:37.815Z,2.63
2017-09-15T04:44:05.964Z,3.60
2017-09-15T04:46:34.135Z,7.27
2017-09-15T04:49:02.269Z,2.27
2017-09-15T04:51:31.590Z,7.63
2017-09-15T04:53:59.746Z,4.33
2017-09-15T04:56:28.977Z,2.63
2017-09-15T04:58:57.923Z,3.57
2017-09-15T05:01:26.055Z,1.70
2017-09-15T05:03:54.189Z,2.67
2017-09-15T05:06:22.362Z,2.53
2017-09-15T05:08:50.530Z,2.50
2017-09-15T05:11:19.771Z,3.60
2017-09-15T05:13:47.901Z,4.30
2017-09-15T05:16:16.042Z,1.50
2017-09-15T05:18:45.784Z,5.30
2017-09-15T05:21:13.957Z,2.73
2017-09-15T05:23:42.126Z,2.20
2017-09-15T05:26:10.258Z,3.67
2017-09-15T05:28:39.243Z,3.30
2017-09-15T05:31:08.162Z,2.20
2017-09-15T05:33:36.331Z,4.00
2017-09-15T05:36:04.468Z,2.20
2017-09-15T05:38:32.652Z,5.40
2017-09-15T05:41:00.799Z,5.00
2017-09-15T05:43:28.933Z,2.53
2017-09-15T05:45:57.107Z,4.13
2017-09-15T05:48:25.292Z,2.20
2017-09-15T05:50:53.502Z,5.33
2017-09-15T05:53:21.683Z,4.73
2017-09-15T05:55:50.612Z,2.63
2017-09-15T05:58:18.737Z,5.17
2017-09-15T06:00:46.870Z,4.30
2017-09-15T06:03:15.024Z,2.27
2017-09-15T06:05:43.165Z,3.30
2017-09-15T06:08:12.088Z,5.03
2017-09-15T06:10:40.247Z,4.40
2017-09-15T06:13:08.418Z,6.93
2017-09-15T06:15:36.558Z,2.60
2017-09-15T06:18:04.722Z,8.30
2017-09-15T06:20:32.858Z,2.73
2017-09-15T06:23:00.990Z,2.57
2017-09-15T06:25:29.917Z,5.13
2017-09-15T06:27:58.077Z,4.10
2017-09-15T06:30:26.242Z,3.60
2017-09-15T06:32:54.373Z,5.27
2017-09-15T06:35:22.508Z,3.87
2017-09-15T06:37:50.683Z,4.30
2017-09-15T06:40:18.826Z,7.63
2017-09-15T06:42:46.999Z,5.50
2017-09-15T06:45:15.166Z,8.73
2017-09-15T06:47:43.304Z,3.70
2017-09-15T06:50:11.465Z,3.80
2017-09-15T06:52:39.617Z,2.90
2017-09-15T06:55:07.757Z,3.83
2017-09-15T06:57:35.932Z,2.77
2017-09-15T07:00:04.155Z,6.37
2017-09-15T07:02:32.333Z,3.90
2017-09-15T07:05:00.458Z,2.00
2017-09-15T07:07:28.629Z,2.50
2017-09-15T07:09:56.769Z,5.63
2017-09-15T07:12:25.714Z,1.50
2017-09-15T07:14:53.862Z,2.93
2017-09-15T07:17:22.000Z,3.07
2017-09-15T07:19:50.944Z,4.10
2017-09-15T07:22:19.091Z,8.63
2017-09-15T07:24:47.264Z,2.07
2017-09-15T07:27:15.397Z,2.90
2017-09-15T07:29:44.301Z,1.73
2017-09-15T07:32:13.236Z,4.67
2017-09-15T07:34:41.396Z,10.53
2017-09-15T07:37:09.577Z,5.17
2017-09-15T07:39:37.735Z,4.30
2017-09-15T07:42:05.911Z,1.90
2017-09-15T07:44:34.079Z,1.77
2017-09-15T07:47:02.233Z,7.47
2017-09-15T07:49:30.387Z,3.90
2017-09-15T07:51:59.289Z,2.97
2017-09-15T07:54:27.432Z,2.60
2017-09-15T07:56:56.375Z,3.00
2017-09-15T07:59:24.532Z,5.83
2017-09-15T08:01:52.700Z,2.53
2017-09-15T08:04:20.840Z,3.70
2017-09-15T08:06:48.992Z,5.20
2017-09-15T08:09:17.161Z,2.30
2017-09-15T08:11:45.303Z,4.20
2017-09-15T08:14:13.474Z,4.10
2017-09-15T08:16:41.616Z,4.53
2017-09-15T08:19:10.548Z,4.07
2017-09-15T08:21:38.704Z,3.10
2017-09-15T08:24:06.877Z,5.90
2017-09-15T08:26:35.082Z,4.30
2017-09-15T08:29:03.235Z,2.80
2017-09-15T08:31:31.397Z,3.60
2017-09-15T08:33:59.544Z,3.83
2017-09-15T08:36:27.707Z,3.20
2017-09-15T08:38:55.856Z,7.50
2017-09-15T08:41:24.027Z,2.20
2017-09-15T08:43:52.174Z,1.83
2017-09-15T08:46:21.088Z,2.73
2017-09-15T08:48:49.264Z,3.10
2017-09-15T08:51:17.403Z,2.20
2017-09-15T08:53:45.568Z,4.53
2017-09-15T08:56:13.716Z,4.60
2017-09-15T08:58:41.860Z,5.43
2017-09-15T09:01:10.798Z,5.57
2017-09-15T09:03:38.930Z,4.63
2017-09-15T09:06:07.867Z,2.20
2017-09-15T09:08:36.002Z,2.40
2017-09-15T09:11:04.181Z,2.40
2017-09-15T09:13:32.319Z,9.23
2017-09-15T09:16:01.359Z,1.70
2017-09-15T09:18:29.517Z,10.23
2017-09-15T09:20:57.663Z,3.40
2017-09-15T09:23:26.604Z,2.50
2017-09-15T09:25:54.736Z,3.47
2017-09-15T09:28:23.000Z,4.30
2017-09-15T09:30:51.898Z,8.03
2017-09-15T09:33:20.813Z,5.97
2017-09-15T09:35:48.991Z,4.47
2017-09-15T09:38:17.133Z,3.43
2017-09-15T09:40:45.289Z,4.80
2017-09-15T09:43:14.185Z,6.00
2017-09-15T09:45:43.114Z,2.20
2017-09-15T09:48:11.259Z,1.03
2017-09-15T09:50:39.413Z,4.37
2017-09-15T09:53:08.337Z,6.30
2017-09-15T09:55:36.479Z,0.97
2017-09-15T09:58:05.417Z,3.83
2017-09-15T10:00:33.560Z,4.97
2017-09-15T10:03:01.697Z,2.93
2017-09-15T10:05:30.719Z,3.70
2017-09-15T10:07:58.880Z,4.17
2017-09-15T10:10:27.811Z,3.63
2017-09-15T10:12:55.953Z,1.33
2017-09-15T10:15:24.096Z,2.90
2017-09-15T10:17:53.040Z,2.80
2017-09-15T10:20:21.189Z,1.93
2017-09-15T10:22:49.352Z,2.20
2017-09-15T10:25:17.491Z,2.00
2017-09-15T10:27:45.650Z,3.90
2017-09-15T10:30:13.807Z,2.87
2017-09-15T10:32:41.975Z,3.23
2017-09-15T10:35:10.113Z,2.40
2017-09-15T10:37:38.265Z,2.70
2017-09-15T10:40:07.208Z,3.37
2017-09-15T10:42:35.352Z,3.80
2017-09-15T10:45:03.520Z,10.30
2017-09-15T10:47:31.657Z,3.87
2017-09-15T10:50:00.651Z,4.00
2017-09-15T10:52:28.812Z,4.63
2017-09-15T10:54:57.014Z,1.90
2017-09-15T10:57:25.954Z,2.00
2017-09-15T10:59:59.716Z,7.80
2017-09-15T11:02:28.011Z,8.10
2017-09-15T11:04:56.152Z,3.10
2017-09-15T11:07:24.337Z,2.37
2017-09-15T11:09:52.501Z,3.37
2017-09-15T11:12:21.534Z,3.93
2017-09-15T11:14:49.683Z,1.27
2017-09-15T11:17:17.821Z,1.90
2017-09-15T11:19:46.762Z,1.43
2017-09-15T11:22:14.908Z,1.93
2017-09-15T11:24:43.066Z,1.87
2017-09-15T11:27:11.988Z,5.20
2017-09-15T11:29:40.141Z,1.87
2017-09-15T11:32:08.291Z,4.10
2017-09-15T11:34:36.437Z,2.50
2017-09-15T11:37:04.600Z,3.50
2017-09-15T11:39:32.733Z,5.07
2017-09-15T11:42:00.891Z,2.13
2017-09-15T11:44:29.835Z,2.30
2017-09-15T11:46:58.009Z,3.40
2017-09-15T11:49:27.086Z,5.40
2017-09-15T11:51:55.236Z,2.40
2017-09-15T11:54:23.404Z,4.90
2017-09-15T11:56:51.545Z,3.67
2017-09-15T11:59:20.590Z,2.70
2017-09-15T12:01:48.856Z,13.50
2017-09-15T12:04:16.990Z,2.50
2017-09-15T12:06:45.914Z,3.50
2017-09-15T12:09:14.047Z,3.07
2017-09-15T12:11:42.960Z,2.10
2017-09-15T12:14:11.099Z,7.60
2017-09-15T12:16:39.250Z,3.40
2017-09-15T12:19:07.383Z,1.20
2017-09-15T12:21:35.531Z,1.70
2017-09-15T12:24:04.421Z,0.80
2017-09-15T12:26:33.355Z,1.33
2017-09-15T12:29:01.483Z,1.17
2017-09-15T12:31:30.416Z,3.70
2017-09-15T12:33:59.324Z,3.07
2017-09-15T12:36:27.467Z,7.40
2017-09-15T12:38:55.610Z,6.70
2017-09-15T12:41:23.734Z,1.90
2017-09-15T12:43:51.908Z,5.13
2017-09-15T12:46:20.042Z,1.03
2017-09-15T12:48:48.213Z,2.97
2017-09-15T12:51:16.344Z,4.20
2017-09-15T12:53:44.479Z,3.33
2017-09-15T12:56:12.636Z,5.33
2017-09-15T12:58:40.777Z,1.70
2017-09-15T13:01:09.703Z,1.57
2017-09-15T13:03:37.848Z,3.03
2017-09-15T13:06:05.987Z,6.77
2017-09-15T13:08:34.129Z,3.10
2017-09-15T13:11:02.261Z,1.10
2017-09-15T13:13:30.429Z,2.60
2017-09-15T13:15:58.596Z,2.40
2017-09-15T13:18:27.531Z,3.03
2017-09-15T13:20:55.670Z,2.53
2017-09-15T13:23:23.827Z,2.07
2017-09-15T13:25:52.761Z,1.63
2017-09-15T13:28:20.899Z,2.07
2017-09-15T13:30:49.076Z,5.40
2017-09-15T13:33:17.213Z,5.60
2017-09-15T13:35:45.371Z,1.93
2017-09-15T13:38:13.519Z,2.37
2017-09-15T13:40:41.642Z,2.70
2017-09-15T13:43:10.576Z,2.17
2017-09-15T13:45:38.707Z,1.20
2017-09-15T13:48:07.747Z,1.67
2017-09-15T13:50:36.654Z,1.60
2017-09-15T13:53:04.776Z,2.00
2017-09-15T13:55:32.956Z,5.10
2017-09-15T13:58:01.116Z,1.00
2017-09-15T14:00:29.285Z,1.90
2017-09-15T14:02:57.432Z,3.13
2017-09-15T14:05:26.385Z,2.00
2017-09-15T14:07:54.521Z,1.10
2017-09-15T14:10:22.709Z,2.17
2017-09-15T14:12:50.852Z,5.57
2017-09-15T14:15:19.746Z,5.30
2017-09-15T14:17:47.911Z,3.30
2017-09-15T14:20:16.824Z,3.80
2017-09-15T14:22:45.728Z,2.77
2017-09-15T14:25:15.354Z,2.73
2017-09-15T14:27:43.473Z,2.50
2017-09-15T14:30:11.639Z,2.20
2017-09-15T14:32:40.540Z,1.70
2017-09-15T14:35:08.705Z,3.07
2017-09-15T14:37:36.879Z,2.37
2017-09-15T14:40:05.049Z,1.33
2017-09-15T14:42:33.219Z,1.70
2017-09-15T14:45:02.118Z,2.30
2017-09-15T14:47:30.281Z,3.30
2017-09-15T14:49:58.422Z,2.23
2017-09-15T14:52:26.586Z,1.70
2017-09-15T14:54:54.727Z,3.70
2017-09-15T14:57:23.016Z,2.50
2017-09-15T14:59:51.164Z,1.50
2017-09-15T15:02:19.297Z,2.03
2017-09-15T15:04:48.231Z,2.50
2017-09-15T15:07:16.388Z,1.83
2017-09-15T15:09:45.270Z,1.37
2017-09-15T15:12:13.431Z,2.80
2017-09-15T15:14:42.348Z,1.53
2017-09-15T15:17:10.510Z,2.73
2017-09-15T15:19:38.648Z,2.77
2017-09-15T15:22:06.821Z,5.83
2017-09-15T15:24:34.949Z,2.37
2017-09-15T15:27:03.111Z,4.00
2017-09-15T15:29:31.262Z,1.13
2017-09-15T15:31:59.463Z,5.33
2017-09-15T15:34:27.604Z,2.13
2017-09-15T15:36:55.803Z,2.43
2017-09-15T15:39:23.968Z,7.70
2017-09-15T15:41:52.115Z,2.37
2017-09-15T15:44:20.411Z,3.60
2017-09-15T15:46:48.555Z,6.77
2017-09-15T15:49:17.465Z,2.03
2017-09-15T15:51:45.645Z,2.00
2017-09-15T15:54:13.808Z,5.70
2017-09-15T15:56:42.912Z,2.10
2017-09-15T15:59:11.055Z,2.67
2017-09-15T16:01:39.967Z,4.20
2017-09-15T16:04:08.146Z,3.77
2017-09-15T16:06:36.282Z,2.40
2017-09-15T16:09:05.212Z,3.53
2017-09-15T16:11:33.363Z,2.87
2017-09-15T16:14:01.528Z,2.73
2017-09-15T16:16:29.661Z,6.63
2017-09-15T16:18:57.855Z,2.27
2017-09-15T16:21:26.789Z,1.40
2017-09-15T16:23:54.926Z,1.90
2017-09-15T16:26:23.109Z,2.90
2017-09-15T16:28:51.249Z,1.73
2017-09-15T16:31:19.419Z,1.90
2017-09-15T16:33:47.585Z,4.43
2017-09-15T16:36:15.763Z,1.50
2017-09-15T16:38:49.454Z,5.27
2017-09-15T16:41:23.206Z,4.00
2017-09-15T16:43:56.941Z,1.30
2017-09-15T16:46:30.680Z,4.23
2017-09-15T16:49:05.105Z,5.40
2017-09-15T16:51:34.032Z,2.90
2017-09-15T16:54:02.183Z,1.83
2017-09-15T16:56:30.333Z,6.03
2017-09-15T16:58:59.384Z,4.20
2017-09-15T17:01:27.526Z,1.10
2017-09-15T17:03:55.662Z,3.57
2017-09-15T17:06:23.817Z,3.90
2017-09-15T17:08:51.961Z,4.90
2017-09-15T17:11:20.093Z,3.70
2017-09-15T17:13:49.014Z,5.20
2017-09-15T17:16:17.159Z,3.70
2017-09-15T17:18:46.087Z,4.07
2017-09-15T17:21:14.230Z,3.77
2017-09-15T17:23:42.385Z,2.70
2017-09-15T17:26:11.322Z,1.30
2017-09-15T17:28:39.490Z,2.13
2017-09-15T17:31:07.673Z,1.80
2017-09-15T17:33:35.806Z,6.50
2017-09-15T17:36:03.973Z,4.40
2017-09-15T17:38:32.114Z,7.20
2017-09-15T17:41:00.291Z,3.03
2017-09-15T17:43:28.417Z,7.00
2017-09-15T17:45:56.663Z,4.37
2017-09-15T17:48:24.841Z,7.50
2017-09-15T17:50:52.986Z,3.63
2017-09-15T17:53:21.923Z,8.80
2017-09-15T17:55:50.080Z,8.03
2017-09-15T17:58:18.244Z,9.63
2017-09-15T18:00:46.398Z,6.80
2017-09-15T18:03:14.571Z,11.33
2017-09-15T18:05:43.499Z,3.93
2017-09-15T18:08:11.660Z,7.40
2017-09-15T18:10:39.826Z,5.40
2017-09-15T18:13:08.000Z,4.30
2017-09-15T18:15:36.144Z,6.17
2017-09-15T18:18:05.065Z,3.13
2017-09-15T18:20:33.209Z,3.00
2017-09-15T18:23:01.380Z,4.37
2017-09-15T18:25:30.284Z,9.60
2017-09-15T18:27:58.532Z,4.33
2017-09-15T18:30:26.706Z,4.93
2017-09-15T18:32:55.626Z,4.53
2017-09-15T18:35:23.802Z,3.33
2017-09-15T18:37:52.791Z,8.37
2017-09-15T18:40:21.016Z,2.80
2017-09-15T18:42:49.177Z,4.53
2017-09-15T18:45:17.365Z,4.70
2017-09-15T18:47:46.352Z,4.50
2017-09-15T18:50:14.690Z,5.60
2017-09-15T18:52:46.042Z,9.03
2017-09-15T18:55:14.669Z,9.23
2017-09-15T18:57:43.771Z,17.63
2017-09-15T19:00:12.212Z,10.80
2017-09-15T19:02:40.688Z,8.53
2017-09-15T19:05:09.312Z,9.73
2017-09-15T19:07:37.600Z,11.10
2017-09-15T19:10:06.085Z,10.43
2017-09-15T19:12:34.637Z,9.60
2017-09-15T19:15:03.961Z,8.70
2017-09-15T19:17:32.450Z,18.60
2017-09-15T19:20:00.927Z,8.80
2017-09-15T19:22:29.709Z,10.60
2017-09-15T19:24:58.967Z,12.97
2017-09-15T19:27:27.901Z,11.30
2017-09-15T19:29:56.788Z,8.70
2017-09-15T19:32:25.515Z,7.43
2017-09-15T19:34:55.059Z,11.03
2017-09-15T19:37:23.933Z,8.23
2017-09-15T19:39:52.614Z,11.40
2017-09-15T19:42:21.381Z,10.30
2017-09-15T19:44:50.853Z,8.90
2017-09-15T19:47:19.626Z,6.03
2017-09-15T19:49:48.931Z,12.73
2017-09-15T19:52:18.314Z,10.50
2017-09-15T19:54:46.959Z,11.00
2017-09-15T19:57:16.580Z,15.90
2017-09-15T19:59:45.790Z,18.67
2017-09-15T20:02:14.187Z,24.90
2017-09-15T20:04:42.769Z,14.13
2017-09-15T20:07:11.294Z,13.87
2017-09-15T20:09:40.680Z,17.53
2017-09-15T20:12:09.341Z,18.60
2017-09-15T20:14:37.727Z,13.20
2017-09-15T20:17:06.157Z,12.93
2017-09-15T20:19:34.444Z,21.83
2017-09-15T20:22:03.376Z,12.67
2017-09-15T20:24:31.540Z,16.67
2017-09-15T20:26:59.757Z,10.97
2017-09-15T20:29:27.905Z,8.20
2017-09-15T20:31:56.164Z,11.10
2017-09-15T20:34:24.304Z,12.47
2017-09-15T20:36:52.455Z,7.17
2017-09-15T20:39:20.607Z,9.37
2017-09-15T20:41:48.755Z,7.53
2017-09-15T20:44:16.946Z,10.07
2017-09-15T20:46:45.116Z,9.40
2017-09-15T20:49:13.293Z,13.97
2017-09-15T20:51:41.431Z,14.93
2017-09-15T20:54:09.570Z,10.73
2017-09-15T20:56:38.528Z,11.90
2017-09-15T20:59:06.683Z,10.93
2017-09-15T21:01:34.839Z,8.80
2017-09-15T21:04:02.974Z,14.60
2017-09-15T21:06:31.902Z,8.80
2017-09-15T21:09:00.094Z,11.13
2017-09-15T21:11:28.271Z,8.67
2017-09-15T21:13:56.559Z,13.57
2017-09-15T21:16:24.691Z,8.63
2017-09-15T21:18:52.863Z,10.23
2017-09-15T21:21:21.011Z,8.80
2017-09-15T21:23:49.169Z,14.07
2017-09-15T21:26:18.073Z,16.03
2017-09-15T21:28:46.220Z,7.33
2017-09-15T21:31:14.383Z,6.40
2017-09-15T21:33:42.525Z,8.40
2017-09-15T21:36:10.699Z,7.17
2017-09-15T21:38:38.837Z,6.37
2017-09-15T21:41:06.998Z,5.37
2017-09-15T21:43:35.925Z,7.63
2017-09-15T21:46:04.063Z,12.47
2017-09-15T21:48:32.220Z,10.07
2017-09-15T21:51:01.145Z,10.20
2017-09-15T21:53:29.338Z,6.80
2017-09-15T21:55:57.494Z,4.53
2017-09-15T21:58:25.656Z,7.60
2017-09-15T22:00:53.799Z,8.77
2017-09-15T22:03:22.720Z,5.47
2017-09-15T22:05:50.888Z,5.50
2017-09-15T22:08:19.027Z,10.20
2017-09-15T22:10:47.978Z,6.10
2017-09-15T22:13:16.117Z,5.50
2017-09-15T22:15:44.242Z,7.07
2017-09-15T22:18:12.402Z,5.73
2017-09-15T22:20:40.559Z,6.23
2017-09-15T22:23:08.734Z,6.70
2017-09-15T22:25:36.866Z,4.43
2017-09-15T22:28:05.071Z,5.77
2017-09-15T22:30:33.224Z,7.70
2017-09-15T22:33:01.375Z,4.37
2017-09-15T22:35:30.306Z,6.83
2017-09-15T22:37:58.446Z,10.63
2017-09-15T22:40:26.743Z,11.00
2017-09-15T22:42:54.885Z,6.00
2017-09-15T22:45:23.823Z,6.10
2017-09-15T22:47:51.970Z,5.83
2017-09-15T22:50:20.106Z,4.13
2017-09-15T22:52:49.030Z,7.27
2017-09-15T22:55:17.167Z,8.10
2017-09-15T22:57:46.091Z,3.43
2017-09-15T23:00:14.226Z,3.50
2017-09-15T23:02:43.160Z,5.50
2017-09-15T23:05:11.311Z,4.70
2017-09-15T23:07:39.465Z,6.53
2017-09-15T23:10:08.374Z,6.70
2017-09-15T23:12:36.546Z,4.50
2017-09-15T23:15:04.702Z,8.97
2017-09-15T23:17:33.621Z,5.13
2017-09-15T23:20:01.782Z,4.53
2017-09-15T23:22:29.924Z,5.00
2017-09-15T23:24:58.853Z,6.53
2017-09-15T23:27:27.002Z,7.67
2017-09-15T23:29:55.151Z,4.70
2017-09-15T23:32:23.324Z,4.53
2017-09-15T23:34:51.467Z,6.03
2017-09-15T23:37:19.637Z,7.47
2017-09-15T23:39:47.789Z,19.37
2017-09-15T23:42:15.983Z,12.27
2017-09-15T23:44:44.152Z,8.30
2017-09-15T23:47:12.273Z,5.27
2017-09-15T23:49:41.202Z,8.50
2017-09-15T23:52:09.353Z,4.50
2017-09-15T23:54:37.502Z,4.20
2017-09-15T23:57:06.455Z,5.30
2017-09-15T23:59:34.607Z,6.27
